Time;durP1;ratioP1;P1;durP2;ratioP2;P2;SDS_P1;SDS_P2;PMS_P1;PMS_P2;Temp;Humidity;BMP_temperature;BMP_pressure;BME280_temperature;BME280_humidity;BME280_pressure;Samples;Min_cycle;Max_cycle;Signal;HPM_P1;HPM_P2
2022/04/04 00:00:42;;;;;;;5.83;4.33;;;;;;;;;;5093946;28;20016;-68
2022/04/04 00:03:08;;;;;;;8.80;4.67;;;;;;;;;;5083470;28;20491;-66
2022/04/04 00:05:34;;;;;;;10.07;5.00;;;;;;;;;;5113329;28;20032;-67
2022/04/04 00:08:00;;;;;;;6.43;4.80;;;;;;;;;;5115785;22;20045;-70
2022/04/04 00:10:26;;;;;;;6.27;4.70;;;;;;;;;;5059465;28;20108;-69
2022/04/04 00:12:52;;;;;;;7.50;4.80;;;;;;;;;;5053586;28;20048;-69
2022/04/04 00:15:18;;;;;;;7.30;4.90;;;;;;;;;;5054571;28;20651;-69
2022/04/04 00:17:47;;;;;;;7.37;4.80;;;;;;;;;;5048325;28;20059;-68
2022/04/04 00:20:14;;;;;;;7.50;4.97;;;;;;;;;;5048995;28;20083;-69
2022/04/04 00:22:40;;;;;;;7.30;4.77;;;;;;;;;;5054702;28;20029;-69
2022/04/04 00:25:06;;;;;;;8.53;4.80;;;;;;;;;;5052427;28;20443;-69
2022/04/04 00:27:32;;;;;;;7.07;4.77;;;;;;;;;;5043996;28;20025;-69
2022/04/04 00:29:58;;;;;;;7.17;5.30;;;;;;;;;;5052530;28;20131;-70
2022/04/04 00:32:24;;;;;;;8.00;5.40;;;;;;;;;;5053897;28;20041;-70
2022/04/04 00:34:50;;;;;;;8.03;5.37;;;;;;;;;;5052660;28;20040;-69
2022/04/04 00:37:16;;;;;;;9.33;5.70;;;;;;;;;;5036850;28;20037;-70
2022/04/04 00:39:42;;;;;;;7.70;5.37;;;;;;;;;;5052437;28;20056;-70
2022/04/04 00:42:08;;;;;;;7.33;5.40;;;;;;;;;;5044642;28;20029;-69
2022/04/04 00:44:34;;;;;;;7.97;5.47;;;;;;;;;;5043032;28;20571;-70
2022/04/04 00:47:01;;;;;;;9.07;6.00;;;;;;;;;;5045577;28;20033;-69
2022/04/04 00:49:27;;;;;;;7.97;5.50;;;;;;;;;;5041522;28;20037;-70
2022/04/04 00:51:55;;;;;;;8.77;5.60;;;;;;;;;;5051819;28;20094;-70
2022/04/04 00:54:20;;;;;;;7.53;5.20;;;;;;;;;;5043439;28;20028;-69
2022/04/04 00:56:46;;;;;;;9.33;5.33;;;;;;;;;;5040567;28;20025;-69
2022/04/04 00:59:16;;;;;;;7.77;5.33;;;;;;;;;;5040773;28;20026;-69
2022/04/04 01:01:43;;;;;;;8.93;6.00;;;;;;;;;;5043241;28;20032;-67
2022/04/04 01:04:11;;;;;;;9.20;5.43;;;;;;;;;;5041974;28;20083;-68
2022/04/04 01:06:38;;;;;;;7.80;5.27;;;;;;;;;;5048409;28;20639;-68
2022/04/04 01:09:04;;;;;;;10.37;5.83;;;;;;;;;;5050820;28;20079;-69
2022/04/04 01:11:30;;;;;;;11.00;6.23;;;;;;;;;;5047128;28;20484;-68
2022/04/04 01:13:56;;;;;;;8.20;5.70;;;;;;;;;;5040384;28;20031;-68
2022/04/04 01:16:22;;;;;;;9.00;6.10;;;;;;;;;;5041114;28;20033;-69
2022/04/04 01:18:48;;;;;;;7.83;5.87;;;;;;;;;;5052404;28;20492;-68
2022/04/04 01:21:18;;;;;;;8.80;5.83;;;;;;;;;;5049203;28;20499;-68
2022/04/04 01:23:44;;;;;;;6.60;5.47;;;;;;;;;;5034511;28;20091;-69
2022/04/04 01:26:13;;;;;;;8.87;6.07;;;;;;;;;;5039407;28;20053;-72
2022/04/04 01:28:40;;;;;;;8.73;6.40;;;;;;;;;;5044628;28;20033;-69
2022/04/04 01:31:06;;;;;;;8.77;6.10;;;;;;;;;;5044588;28;20064;-68
2022/04/04 01:33:32;;;;;;;9.43;6.73;;;;;;;;;;5050885;28;20462;-68
2022/04/04 01:35:58;;;;;;;8.77;6.53;;;;;;;;;;5051960;28;20504;-68
2022/04/04 01:38:25;;;;;;;9.20;6.70;;;;;;;;;;5050266;28;20025;-67
2022/04/04 01:40:51;;;;;;;11.50;6.53;;;;;;;;;;5043088;28;20095;-68
2022/04/04 01:43:17;;;;;;;9.83;6.47;;;;;;;;;;5040851;28;20393;-68
2022/04/04 01:48:28;;;;;;;9.65;6.93;;;;;;;;;;5050927;28;20520;-68
2022/04/04 01:50:54;;;;;;;9.03;6.70;;;;;;;;;;5043451;28;20063;-69
2022/04/04 01:53:26;;;;;;;9.33;6.73;;;;;;;;;;5032141;28;20053;-69
2022/04/04 01:55:53;;;;;;;8.57;6.60;;;;;;;;;;5041614;28;20405;-69
2022/04/04 01:58:19;;;;;;;10.67;6.97;;;;;;;;;;5041830;28;20032;-69
2022/04/04 02:00:45;;;;;;;9.17;7.00;;;;;;;;;;5037543;28;20037;-69
2022/04/04 02:03:11;;;;;;;10.80;7.13;;;;;;;;;;5031754;28;20032;-68
2022/04/04 02:05:38;;;;;;;11.33;6.87;;;;;;;;;;5050073;28;20060;-68
2022/04/04 02:08:05;;;;;;;11.83;7.60;;;;;;;;;;5042360;28;20107;-68
2022/04/04 02:10:31;;;;;;;9.30;7.00;;;;;;;;;;5047269;28;20040;-69
2022/04/04 02:12:58;;;;;;;10.10;7.40;;;;;;;;;;5057598;28;20034;-67
2022/04/04 02:15:24;;;;;;;9.23;7.57;;;;;;;;;;5039154;28;20030;-69
2022/04/04 02:17:50;;;;;;;13.43;7.40;;;;;;;;;;5031663;28;20048;-69
2022/04/04 02:20:16;;;;;;;9.30;7.33;;;;;;;;;;5040834;28;20403;-69
2022/04/04 02:22:42;;;;;;;10.70;7.20;;;;;;;;;;5038676;28;20083;-69
2022/04/04 02:25:08;;;;;;;9.77;6.83;;;;;;;;;;5043458;28;20040;-68
2022/04/04 02:27:34;;;;;;;12.67;7.60;;;;;;;;;;5047037;28;20029;-69
2022/04/04 02:30:00;;;;;;;12.87;7.53;;;;;;;;;;5039102;28;20053;-68
2022/04/04 02:32:26;;;;;;;12.17;8.13;;;;;;;;;;5032148;28;20057;-68
2022/04/04 02:34:52;;;;;;;12.30;7.60;;;;;;;;;;5043672;28;20021;-69
2022/04/04 02:37:18;;;;;;;10.53;7.60;;;;;;;;;;5047225;28;20413;-69
2022/04/04 02:39:44;;;;;;;9.60;7.60;;;;;;;;;;5051965;28;20048;-69
2022/04/04 02:42:10;;;;;;;10.73;7.17;;;;;;;;;;5050772;28;20029;-69
2022/04/04 02:44:36;;;;;;;10.60;7.63;;;;;;;;;;5039971;28;20025;-68
2022/04/04 02:47:02;;;;;;;11.03;8.20;;;;;;;;;;5029973;28;20044;-69
2022/04/04 02:49:29;;;;;;;14.37;8.47;;;;;;;;;;5045190;28;20051;-69
2022/04/04 02:51:57;;;;;;;9.70;7.23;;;;;;;;;;5042542;28;20032;-69
2022/04/04 02:54:23;;;;;;;12.77;8.47;;;;;;;;;;5044618;28;20032;-69
2022/04/04 02:56:49;;;;;;;12.33;7.77;;;;;;;;;;5050588;28;20051;-70
2022/04/04 02:59:16;;;;;;;12.03;7.47;;;;;;;;;;5041794;28;20436;-69
2022/04/04 03:01:48;;;;;;;12.53;8.00;;;;;;;;;;5039581;28;20104;-69
2022/04/04 03:04:14;;;;;;;10.57;7.77;;;;;;;;;;5052866;28;20036;-69
2022/04/04 03:06:40;;;;;;;10.10;7.23;;;;;;;;;;5053179;28;20074;-68
2022/04/04 03:09:06;;;;;;;10.90;8.07;;;;;;;;;;5040491;28;20105;-69
2022/04/04 03:11:32;;;;;;;13.23;8.10;;;;;;;;;;5039371;28;20034;-69
2022/04/04 03:13:58;;;;;;;11.13;7.73;;;;;;;;;;5037722;28;20097;-70
2022/04/04 03:16:24;;;;;;;10.00;7.33;;;;;;;;;;5039371;28;20083;-69
2022/04/04 03:18:53;;;;;;;10.20;7.33;;;;;;;;;;5041590;28;20048;-69
2022/04/04 03:21:20;;;;;;;11.83;7.90;;;;;;;;;;5054712;28;20068;-69
2022/04/04 03:23:46;;;;;;;11.50;7.33;;;;;;;;;;5051965;28;20025;-69
2022/04/04 03:26:12;;;;;;;12.87;7.33;;;;;;;;;;5046171;28;20146;-70
2022/04/04 03:28:38;;;;;;;10.50;7.10;;;;;;;;;;5050078;28;20473;-69
2022/04/04 03:31:05;;;;;;;12.13;7.73;;;;;;;;;;5046183;28;20059;-69
2022/04/04 03:33:31;;;;;;;12.43;7.83;;;;;;;;;;5054711;28;20025;-69
2022/04/04 03:35:58;;;;;;;10.33;8.33;;;;;;;;;;5053955;28;20048;-69
2022/04/04 03:38:24;;;;;;;12.17;8.17;;;;;;;;;;5053289;28;20059;-69
2022/04/04 03:40:50;;;;;;;14.83;8.70;;;;;;;;;;5047978;28;20094;-69
2022/04/04 03:43:16;;;;;;;11.20;8.23;;;;;;;;;;5045944;28;20033;-69
2022/04/04 03:45:42;;;;;;;13.70;8.43;;;;;;;;;;5043576;28;20029;-69
2022/04/04 03:48:09;;;;;;;12.60;7.97;;;;;;;;;;5054133;28;20488;-69
2022/04/04 03:50:35;;;;;;;12.37;8.13;;;;;;;;;;5053975;28;20477;-69
2022/04/04 03:53:01;;;;;;;10.93;7.43;;;;;;;;;;5068569;28;20039;-68
2022/04/04 03:55:33;;;;;;;12.03;7.67;;;;;;;;;;5053100;28;20520;-68
2022/04/04 03:58:00;;;;;;;13.03;8.30;;;;;;;;;;5045876;28;20030;-69
2022/04/04 04:00:26;;;;;;;11.70;8.37;;;;;;;;;;5042198;28;20049;-68
2022/04/04 04:02:52;;;;;;;11.43;7.70;;;;;;;;;;5034814;28;20021;-69
2022/04/04 04:05:18;;;;;;;10.40;7.93;;;;;;;;;;5034785;28;20034;-69
2022/04/04 04:07:45;;;;;;;12.47;7.87;;;;;;;;;;5033996;28;20036;-69
2022/04/04 04:10:11;;;;;;;11.50;8.23;;;;;;;;;;5044885;28;20029;-69
2022/04/04 04:12:39;;;;;;;12.47;8.73;;;;;;;;;;5051219;28;20078;-69
2022/04/04 04:15:06;;;;;;;14.80;8.87;;;;;;;;;;5041537;28;20029;-69
2022/04/04 04:17:32;;;;;;;11.27;8.40;;;;;;;;;;5045478;28;20027;-68
2022/04/04 04:22:45;;;;;;;13.30;7.90;;;;;;;;;;5053387;28;20401;-68
2022/04/04 04:25:14;;;;;;;11.90;7.97;;;;;;;;;;5068663;28;20032;-69
2022/04/04 04:27:41;;;;;;;12.97;7.87;;;;;;;;;;5051013;28;20469;-75
2022/04/04 04:30:07;;;;;;;11.67;8.13;;;;;;;;;;5043593;28;20067;-69
2022/04/04 04:32:33;;;;;;;11.67;8.17;;;;;;;;;;5039990;28;20545;-69
2022/04/04 04:34:59;;;;;;;13.57;8.33;;;;;;;;;;5051948;28;20040;-70
2022/04/04 04:37:26;;;;;;;12.13;8.33;;;;;;;;;;5053347;28;20021;-70
2022/04/04 04:39:52;;;;;;;9.27;7.57;;;;;;;;;;5052022;28;20417;-69
2022/04/04 04:42:18;;;;;;;10.43;7.50;;;;;;;;;;5050779;28;20044;-70
2022/04/04 04:44:44;;;;;;;12.00;8.10;;;;;;;;;;5040615;28;20464;-68
2022/04/04 04:47:10;;;;;;;11.97;8.73;;;;;;;;;;5033265;28;20420;-69
2022/04/04 04:49:37;;;;;;;9.43;7.83;;;;;;;;;;5033455;28;20024;-77
2022/04/04 04:52:03;;;;;;;11.20;8.23;;;;;;;;;;5048372;28;20063;-76
2022/04/04 04:54:30;;;;;;;11.83;7.43;;;;;;;;;;5037454;28;20025;-76
2022/04/04 04:56:56;;;;;;;11.27;7.47;;;;;;;;;;5062006;28;20119;-76
2022/04/04 04:59:22;;;;;;;11.57;7.80;;;;;;;;;;5042566;28;20171;-78
2022/04/04 05:01:48;;;;;;;13.23;8.33;;;;;;;;;;5047125;28;20029;-77
2022/04/04 05:04:14;;;;;;;9.47;7.23;;;;;;;;;;5047139;28;20084;-74
2022/04/04 05:06:40;;;;;;;12.10;7.67;;;;;;;;;;5045613;28;20033;-74
2022/04/04 05:09:06;;;;;;;10.40;8.30;;;;;;;;;;5041166;28;20041;-74
2022/04/04 05:11:32;;;;;;;13.43;8.40;;;;;;;;;;5045064;28;20485;-74
2022/04/04 05:13:58;;;;;;;12.50;8.10;;;;;;;;;;5049359;28;20069;-75
2022/04/04 05:16:28;;;;;;;11.37;8.23;;;;;;;;;;5049194;28;20094;-77
2022/04/04 05:18:55;;;;;;;14.50;8.43;;;;;;;;;;5042579;28;20095;-74
2022/04/04 05:21:21;;;;;;;11.57;8.00;;;;;;;;;;5047444;28;20025;-73
2022/04/04 05:23:47;;;;;;;12.97;7.93;;;;;;;;;;5043288;28;20122;-78
2022/04/04 05:26:14;;;;;;;13.43;8.73;;;;;;;;;;5049283;28;20041;-75
2022/04/04 05:28:40;;;;;;;11.60;8.63;;;;;;;;;;5061266;28;20560;-76
2022/04/04 05:31:06;;;;;;;12.20;8.07;;;;;;;;;;5047218;28;20583;-73
2022/04/04 05:33:32;;;;;;;12.90;8.83;;;;;;;;;;5044711;28;20036;-73
2022/04/04 05:35:58;;;;;;;10.63;7.77;;;;;;;;;;5048531;28;20036;-76
2022/04/04 05:38:25;;;;;;;13.10;8.47;;;;;;;;;;5048659;28;20095;-74
2022/04/04 05:40:51;;;;;;;10.77;8.30;;;;;;;;;;5052889;28;20107;-75
2022/04/04 05:43:18;;;;;;;13.23;8.07;;;;;;;;;;5054880;28;20025;-77
2022/04/04 05:45:44;;;;;;;13.07;9.23;;;;;;;;;;5059887;28;20029;-79
2022/04/04 05:48:10;;;;;;;13.60;8.77;;;;;;;;;;5046848;28;20036;-78
2022/04/04 05:50:36;;;;;;;12.73;9.17;;;;;;;;;;5046473;28;20104;-75
2022/04/04 05:53:02;;;;;;;13.27;8.87;;;;;;;;;;5070078;28;20401;-76
2022/04/04 05:55:30;;;;;;;12.23;9.20;;;;;;;;;;5042142;28;20507;-75
2022/04/04 05:57:56;;;;;;;11.87;9.27;;;;;;;;;;5067544;28;20419;-77
2022/04/04 06:00:22;;;;;;;13.17;8.93;;;;;;;;;;5050860;28;20029;-76
2022/04/04 06:02:48;;;;;;;12.00;9.53;;;;;;;;;;5047582;28;20584;-76
2022/04/04 06:05:15;;;;;;;13.43;9.50;;;;;;;;;;5049722;28;20037;-76
2022/04/04 06:07:41;;;;;;;14.20;9.40;;;;;;;;;;5073655;23;20040;-68
2022/04/04 06:10:08;;;;;;;14.00;9.83;;;;;;;;;;5043198;28;20029;-69
2022/04/04 06:12:35;;;;;;;12.77;9.60;;;;;;;;;;5045203;28;20106;-70
2022/04/04 06:15:01;;;;;;;15.47;10.27;;;;;;;;;;5045224;28;20033;-70
2022/04/04 06:17:27;;;;;;;14.90;10.17;;;;;;;;;;5039985;28;20029;-70
2022/04/04 06:19:55;;;;;;;13.65;9.88;;;;;;;;;;5048348;28;20096;-70
2022/04/04 06:22:22;;;;;;;14.15;10.35;;;;;;;;;;5043916;28;20100;-68
2022/04/04 06:24:48;;;;;;;15.07;9.70;;;;;;;;;;5052028;28;20477;-70
2022/04/04 06:27:15;;;;;;;11.88;9.73;;;;;;;;;;5051338;28;20025;-69
2022/04/04 06:29:41;;;;;;;15.45;10.48;;;;;;;;;;5050721;28;20076;-69
2022/04/04 06:32:07;;;;;;;12.43;10.05;;;;;;;;;;5042429;28;20056;-68
2022/04/04 06:34:33;;;;;;;12.55;9.88;;;;;;;;;;5043042;28;20104;-68
2022/04/04 06:36:59;;;;;;;16.92;10.77;;;;;;;;;;5039506;28;20049;-71
2022/04/04 06:39:25;;;;;;;15.27;10.55;;;;;;;;;;5048537;28;20096;-71
2022/04/04 06:41:51;;;;;;;14.05;11.18;;;;;;;;;;5043838;28;20037;-71
2022/04/04 06:44:17;;;;;;;14.68;10.60;;;;;;;;;;5051987;28;20044;-71
2022/04/04 06:46:43;;;;;;;15.30;11.27;;;;;;;;;;5047491;28;20068;-71
2022/04/04 06:49:10;;;;;;;16.48;11.05;;;;;;;;;;5047100;28;20026;-71
2022/04/04 06:51:36;;;;;;;15.05;11.60;;;;;;;;;;5044322;28;20404;-71
2022/04/04 06:54:05;;;;;;;18.08;12.30;;;;;;;;;;5055048;28;20401;-68
2022/04/04 06:56:32;;;;;;;16.67;12.10;;;;;;;;;;5049668;28;20025;-69
2022/04/04 06:58:58;;;;;;;17.83;11.90;;;;;;;;;;5051843;28;20094;-70
2022/04/04 07:01:24;;;;;;;17.95;12.55;;;;;;;;;;5050166;28;20025;-70
2022/04/04 07:03:50;;;;;;;19.25;12.52;;;;;;;;;;5049699;28;20029;-69
2022/04/04 07:06:16;;;;;;;18.33;12.75;;;;;;;;;;5049921;28;20455;-70
2022/04/04 07:08:43;;;;;;;16.63;12.00;;;;;;;;;;5045839;28;20033;-71
2022/04/04 07:11:10;;;;;;;19.75;13.25;;;;;;;;;;5051289;28;20039;-71
2022/04/04 07:13:40;;;;;;;16.45;12.10;;;;;;;;;;5047137;28;20059;-69
2022/04/04 07:16:06;;;;;;;16.77;12.25;;;;;;;;;;5052395;28;20028;-69
2022/04/04 07:18:32;;;;;;;19.05;12.98;;;;;;;;;;5038940;28;20440;-69
2022/04/04 07:20:58;;;;;;;19.58;13.15;;;;;;;;;;5047766;28;20540;-69
2022/04/04 07:23:24;;;;;;;17.52;12.85;;;;;;;;;;5052861;28;20025;-69
2022/04/04 07:25:50;;;;;;;17.55;12.85;;;;;;;;;;5055376;28;20033;-69
2022/04/04 07:28:16;;;;;;;18.17;13.05;;;;;;;;;;5050105;28;20057;-68
2022/04/04 07:30:45;;;;;;;17.95;12.60;;;;;;;;;;5055833;28;20025;-70
2022/04/04 07:33:15;;;;;;;16.13;12.68;;;;;;;;;;5053633;28;20409;-69
2022/04/04 07:35:41;;;;;;;19.65;13.63;;;;;;;;;;5045527;28;20029;-69
2022/04/04 07:38:07;;;;;;;17.98;12.80;;;;;;;;;;5053922;28;20036;-69
2022/04/04 07:40:33;;;;;;;18.50;13.73;;;;;;;;;;5053704;28;20365;-69
2022/04/04 07:42:59;;;;;;;16.33;12.52;;;;;;;;;;5052168;28;20036;-68
2022/04/04 07:45:27;;;;;;;17.48;13.10;;;;;;;;;;5048277;28;20044;-68
2022/04/04 07:47:55;;;;;;;19.75;13.20;;;;;;;;;;5038151;28;20152;-69
2022/04/04 07:50:21;;;;;;;17.95;14.02;;;;;;;;;;5052664;28;20111;-68
2022/04/04 07:52:47;;;;;;;18.00;14.13;;;;;;;;;;5059898;28;20029;-68
2022/04/04 07:55:13;;;;;;;17.42;13.57;;;;;;;;;;5062836;28;20086;-68
2022/04/04 07:57:39;;;;;;;20.08;13.13;;;;;;;;;;5064196;28;20033;-68
2022/04/04 08:00:07;;;;;;;19.35;13.48;;;;;;;;;;5058233;28;20088;-68
2022/04/04 08:02:33;;;;;;;18.25;13.13;;;;;;;;;;5054256;28;20036;-69
2022/04/04 08:04:59;;;;;;;17.40;13.73;;;;;;;;;;5056486;28;20527;-72
2022/04/04 08:07:25;;;;;;;15.35;12.40;;;;;;;;;;5054037;28;20029;-69
2022/04/04 08:09:51;;;;;;;18.70;13.98;;;;;;;;;;5054108;28;20040;-69
2022/04/04 08:12:17;;;;;;;17.00;13.82;;;;;;;;;;5053667;28;20044;-70
2022/04/04 08:14:47;;;;;;;19.13;13.95;;;;;;;;;;5046737;28;20114;-69
2022/04/04 08:17:14;;;;;;;21.30;13.77;;;;;;;;;;5051172;28;20024;-72
2022/04/04 08:19:40;;;;;;;17.77;14.52;;;;;;;;;;5033095;28;20033;-69
2022/04/04 08:22:06;;;;;;;16.08;12.32;;;;;;;;;;5044900;28;20025;-68
2022/04/04 08:24:32;;;;;;;17.70;12.68;;;;;;;;;;5052425;28;20396;-69
2022/04/04 08:26:58;;;;;;;17.10;13.20;;;;;;;;;;5045337;28;20065;-69
2022/04/04 08:29:24;;;;;;;16.52;12.80;;;;;;;;;;5051817;28;20445;-68
2022/04/04 08:31:50;;;;;;;16.92;13.43;;;;;;;;;;5052750;28;20032;-69
2022/04/04 08:34:16;;;;;;;14.70;12.15;;;;;;;;;;5052445;28;20033;-68
2022/04/04 08:36:42;;;;;;;18.33;12.80;;;;;;;;;;5044792;28;20104;-68
2022/04/04 08:39:08;;;;;;;16.42;12.07;;;;;;;;;;5053188;28;20449;-68
2022/04/04 08:41:35;;;;;;;16.98;12.65;;;;;;;;;;5054302;28;20033;-68
2022/04/04 08:44:03;;;;;;;15.85;12.57;;;;;;;;;;5047740;28;20036;-68
2022/04/04 08:46:30;;;;;;;18.10;12.43;;;;;;;;;;5053572;28;20381;-68
2022/04/04 08:48:58;;;;;;;17.13;12.73;;;;;;;;;;5053511;28;20032;-68
2022/04/04 08:51:24;;;;;;;15.32;12.02;;;;;;;;;;5051443;28;20029;-68
2022/04/04 08:53:50;;;;;;;18.65;12.52;;;;;;;;;;5045936;28;20025;-68
2022/04/04 08:56:17;;;;;;;18.65;12.02;;;;;;;;;;5051390;28;20341;-69
2022/04/04 08:58:44;;;;;;;19.08;12.45;;;;;;;;;;5033619;28;20032;-67
2022/04/04 09:01:10;;;;;;;18.23;12.80;;;;;;;;;;5045632;28;20490;-69
2022/04/04 09:03:36;;;;;;;17.15;12.05;;;;;;;;;;5063883;28;20033;-68
2022/04/04 09:06:03;;;;;;;15.70;11.25;;;;;;;;;;5070912;28;20076;-67
2022/04/04 09:08:30;;;;;;;13.77;10.52;;;;;;;;;;5071190;28;20093;-68
2022/04/04 09:10:57;;;;;;;17.85;11.27;;;;;;;;;;5065317;28;20036;-69
2022/04/04 09:13:24;;;;;;;12.10;9.88;;;;;;;;;;5069646;28;20095;-68
2022/04/04 09:15:50;;;;;;;13.98;10.43;;;;;;;;;;5068648;28;20071;-68
2022/04/04 09:18:16;;;;;;;17.13;11.10;;;;;;;;;;5068626;28;20033;-68
2022/04/04 09:20:49;;;;;;;15.10;10.63;;;;;;;;;;5068212;28;20037;-68
2022/04/04 09:23:15;;;;;;;16.15;10.65;;;;;;;;;;5053878;28;20071;-68
2022/04/04 09:25:41;;;;;;;13.25;10.38;;;;;;;;;;5051878;28;20053;-68
2022/04/04 09:28:18;;;;;;;15.20;10.57;;;;;;;;;;5047608;28;20059;-68
2022/04/04 09:30:45;;;;;;;15.82;10.63;;;;;;;;;;5049874;28;20029;-68
2022/04/04 09:33:14;;;;;;;17.23;10.75;;;;;;;;;;5053193;28;20086;-68
2022/04/04 09:35:47;;;;;;;14.98;10.13;;;;;;;;;;5050910;28;20124;-68
2022/04/04 09:38:16;;;;;;;16.15;9.73;;;;;;;;;;5065869;28;20029;-67
2022/04/04 09:40:43;;;;;;;14.27;10.43;;;;;;;;;;5048451;28;20088;-67
2022/04/04 09:43:09;;;;;;;15.25;10.43;;;;;;;;;;5060215;28;20020;-67
2022/04/04 09:45:35;;;;;;;14.23;10.70;;;;;;;;;;5066775;28;20527;-67
2022/04/04 09:48:08;;;;;;;18.42;11.43;;;;;;;;;;5065289;28;20040;-67
2022/04/04 09:50:38;;;;;;;15.40;10.82;;;;;;;;;;5064453;28;20032;-67
2022/04/04 09:53:08;;;;;;;14.32;11.25;;;;;;;;;;5059089;28;20021;-68
2022/04/04 09:55:35;;;;;;;14.77;10.88;;;;;;;;;;5061603;28;20025;-70
2022/04/04 09:58:05;;;;;;;15.07;12.13;;;;;;;;;;5059755;28;20028;-67
2022/04/04 10:00:32;;;;;;;17.90;11.18;;;;;;;;;;5054237;28;20525;-67
2022/04/04 10:02:59;;;;;;;17.10;11.57;;;;;;;;;;5060470;28;20057;-68
2022/04/04 10:05:25;;;;;;;15.93;11.40;;;;;;;;;;5042319;28;20037;-68
2022/04/04 10:07:52;;;;;;;14.80;11.27;;;;;;;;;;5054471;28;20375;-68
2022/04/04 10:10:18;;;;;;;16.95;11.48;;;;;;;;;;5041875;28;20080;-68
2022/04/04 10:12:45;;;;;;;18.63;11.32;;;;;;;;;;5051569;28;20033;-68
2022/04/04 10:15:11;;;;;;;19.45;11.70;;;;;;;;;;5050445;28;20025;-68
2022/04/04 10:17:38;;;;;;;15.73;11.50;;;;;;;;;;5042467;28;20393;-68
2022/04/04 10:20:05;;;;;;;17.05;11.30;;;;;;;;;;5043876;28;20362;-67
2022/04/04 10:22:31;;;;;;;19.77;12.85;;;;;;;;;;5039385;28;20489;-67
2022/04/04 10:24:59;;;;;;;14.77;11.15;;;;;;;;;;5049188;28;20404;-67
2022/04/04 10:27:25;;;;;;;13.50;10.57;;;;;;;;;;5060670;28;20028;-67
2022/04/04 10:30:00;;;;;;;16.83;11.30;;;;;;;;;;5065909;28;20115;-67
2022/04/04 10:32:28;;;;;;;17.35;11.13;;;;;;;;;;5043688;28;20111;-68
2022/04/04 10:34:55;;;;;;;21.42;11.00;;;;;;;;;;5079659;28;20033;-67
2022/04/04 10:37:25;;;;;;;15.73;10.68;;;;;;;;;;5061236;28;20105;-68
2022/04/04 10:39:52;;;;;;;18.15;11.85;;;;;;;;;;5048402;28;20021;-69
2022/04/04 10:42:37;;;;;;;15.85;11.68;;;;;;;;;;5046776;28;20048;-67
2022/04/04 10:45:10;;;;;;;19.05;12.00;;;;;;;;;;5058649;28;20047;-67
2022/04/04 10:47:42;;;;;;;16.45;10.50;;;;;;;;;;5061980;28;20033;-67
2022/04/04 10:50:22;;;;;;;16.92;10.48;;;;;;;;;;5059585;28;20060;-69
2022/04/04 10:52:48;;;;;;;18.52;11.15;;;;;;;;;;5059454;28;20041;-67
2022/04/04 10:55:25;;;;;;;19.48;10.60;;;;;;;;;;5058628;28;20115;-66
2022/04/04 10:57:52;;;;;;;14.73;10.57;;;;;;;;;;5053737;28;20025;-68
2022/04/04 11:00:18;;;;;;;19.65;10.75;;;;;;;;;;5056890;28;20023;-67
2022/04/04 11:02:44;;;;;;;17.60;10.77;;;;;;;;;;5054646;28;20096;-69
2022/04/04 11:08:06;;;;;;;16.67;10.43;;;;;;;;;;5042768;28;20481;-67
2022/04/04 11:10:43;;;;;;;18.30;11.35;;;;;;;;;;5049107;28;20021;-67
2022/04/04 11:13:09;;;;;;;15.35;10.07;;;;;;;;;;5057306;28;20548;-67
2022/04/04 11:15:45;;;;;;;16.00;10.27;;;;;;;;;;5053463;28;20021;-67
2022/04/04 11:18:14;;;;;;;13.23;8.95;;;;;;;;;;5051968;28;20021;-67
2022/04/04 11:20:50;;;;;;;14.18;8.52;;;;;;;;;;5056257;28;20048;-66
2022/04/04 11:23:17;;;;;;;15.20;9.05;;;;;;;;;;5051587;28;20221;-68
2022/04/04 11:25:52;;;;;;;9.45;6.72;;;;;;;;;;5054332;28;20527;-67
2022/04/04 11:28:20;;;;;;;13.73;8.93;;;;;;;;;;5052193;28;20025;-67
2022/04/04 11:30:47;;;;;;;13.02;8.32;;;;;;;;;;5054268;28;20025;-67
2022/04/04 11:33:22;;;;;;;12.65;8.52;;;;;;;;;;5054168;28;20053;-69
2022/04/04 11:35:48;;;;;;;11.32;7.85;;;;;;;;;;5053594;28;20087;-68
2022/04/04 11:38:17;;;;;;;12.20;8.25;;;;;;;;;;5053837;28;20053;-69
2022/04/04 11:40:45;;;;;;;10.27;8.48;;;;;;;;;;5048963;28;20056;-67
2022/04/04 11:43:12;;;;;;;14.57;7.22;;;;;;;;;;5041046;28;20056;-66
2022/04/04 11:45:41;;;;;;;9.63;6.93;;;;;;;;;;5054631;28;20064;-67
2022/04/04 11:48:14;;;;;;;9.68;7.28;;;;;;;;;;5054158;28;20485;-65
2022/04/04 11:50:40;;;;;;;10.43;7.00;;;;;;;;;;5054419;28;20409;-66
2022/04/04 11:53:13;;;;;;;10.85;6.90;;;;;;;;;;5054943;28;20028;-68
2022/04/04 11:55:41;;;;;;;13.50;6.72;;;;;;;;;;5054355;28;20057;-67
2022/04/04 11:58:12;;;;;;;14.20;6.82;;;;;;;;;;5054496;28;20048;-67
2022/04/04 12:00:42;;;;;;;11.70;6.78;;;;;;;;;;5054460;28;20028;-69
2022/04/04 12:03:12;;;;;;;14.18;6.60;;;;;;;;;;5054895;28;20057;-68
2022/04/04 12:05:43;;;;;;;9.65;6.43;;;;;;;;;;5055114;28;20035;-68
2022/04/04 12:08:09;;;;;;;11.45;6.32;;;;;;;;;;5075197;23;20037;-75
2022/04/04 12:10:37;;;;;;;9.15;6.30;;;;;;;;;;5074719;28;20083;-74
2022/04/04 12:13:07;;;;;;;8.65;5.57;;;;;;;;;;5057076;28;20041;-75
2022/04/04 12:15:34;;;;;;;14.38;5.93;;;;;;;;;;5073283;28;20025;-77
2022/04/04 12:18:02;;;;;;;10.18;5.88;;;;;;;;;;5071974;28;20013;-75
2022/04/04 12:20:39;;;;;;;8.63;6.10;;;;;;;;;;5031106;28;20026;-75
2022/04/04 12:25:50;;;;;;;8.98;5.97;;;;;;;;;;5029496;28;20398;-75
2022/04/04 12:28:25;;;;;;;13.52;5.88;;;;;;;;;;5033368;28;20048;-73
2022/04/04 12:30:51;;;;;;;7.55;5.85;;;;;;;;;;5047934;28;20041;-74
2022/04/04 12:33:17;;;;;;;12.20;5.43;;;;;;;;;;5033634;28;20036;-73
2022/04/04 12:35:43;;;;;;;13.07;5.55;;;;;;;;;;5034411;28;20477;-72
2022/04/04 12:38:10;;;;;;;12.40;5.88;;;;;;;;;;5034026;28;20029;-73
2022/04/04 12:40:38;;;;;;;8.90;5.88;;;;;;;;;;5033076;28;20087;-72
2022/04/04 12:43:08;;;;;;;10.18;6.00;;;;;;;;;;5026291;28;20031;-73
2022/04/04 12:45:34;;;;;;;16.67;6.68;;;;;;;;;;5033090;28;20041;-71
2022/04/04 12:48:04;;;;;;;13.80;6.93;;;;;;;;;;5033131;28;20136;-72
2022/04/04 12:50:56;;;;;;;13.98;6.68;;;;;;;;;;5031356;28;20036;-73
2022/04/04 12:53:22;;;;;;;11.27;6.78;;;;;;;;;;5025403;28;20046;-75
2022/04/04 12:56:06;;;;;;;13.63;7.63;;;;;;;;;;5021685;28;20052;-74
2022/04/04 12:58:33;;;;;;;13.15;8.18;;;;;;;;;;5031917;28;20029;-75
2022/04/04 13:01:09;;;;;;;15.20;8.43;;;;;;;;;;5033597;28;20021;-75
2022/04/04 13:03:46;;;;;;;15.32;8.77;;;;;;;;;;5033647;28;20025;-76
2022/04/04 13:06:12;;;;;;;17.45;9.68;;;;;;;;;;5034032;28;20029;-75
2022/04/04 13:08:38;;;;;;;16.92;9.38;;;;;;;;;;5033273;28;20036;-74
2022/04/04 13:11:07;;;;;;;16.42;9.77;;;;;;;;;;5031963;28;20025;-74
2022/04/04 13:13:34;;;;;;;14.90;9.63;;;;;;;;;;5033980;28;20021;-76
2022/04/04 13:16:01;;;;;;;21.40;12.00;;;;;;;;;;5032195;28;20036;-75
2022/04/04 13:18:27;;;;;;;21.23;11.43;;;;;;;;;;5034814;28;20030;-76
2022/04/04 13:20:53;;;;;;;16.77;11.32;;;;;;;;;;5033929;28;20497;-74
2022/04/04 13:23:20;;;;;;;18.47;12.40;;;;;;;;;;5035144;28;20040;-75
2022/04/04 13:25:46;;;;;;;20.13;12.10;;;;;;;;;;5032693;28;20018;-72
2022/04/04 13:28:13;;;;;;;16.63;11.97;;;;;;;;;;5029976;28;20040;-75
2022/04/04 13:30:40;;;;;;;19.17;11.93;;;;;;;;;;5033980;28;20028;-75
2022/04/04 13:33:09;;;;;;;17.38;11.70;;;;;;;;;;5032226;28;20470;-75
2022/04/04 13:35:35;;;;;;;19.70;12.63;;;;;;;;;;5033454;28;20025;-78
2022/04/04 13:38:02;;;;;;;19.47;13.13;;;;;;;;;;5031734;28;20441;-75
2022/04/04 13:40:28;;;;;;;22.10;14.77;;;;;;;;;;5032426;28;20053;-76
2022/04/04 13:42:54;;;;;;;21.27;13.53;;;;;;;;;;5033903;28;20033;-75
2022/04/04 13:45:20;;;;;;;22.93;14.37;;;;;;;;;;5025494;28;20033;-77
2022/04/04 13:47:46;;;;;;;27.77;16.33;;;;;;;;;;5033660;28;20034;-76
2022/04/04 13:50:12;;;;;;;26.00;15.17;;;;;;;;;;5034875;28;20022;-77
2022/04/04 13:52:43;;;;;;;22.63;15.03;;;;;;;;;;5032621;28;20040;-76
2022/04/04 13:55:09;;;;;;;23.90;15.40;;;;;;;;;;5030748;28;20041;-75
2022/04/04 13:57:36;;;;;;;22.93;14.77;;;;;;;;;;5035187;28;20021;-76
2022/04/04 14:00:02;;;;;;;27.93;15.93;;;;;;;;;;5045330;28;20029;-77
2022/04/04 14:02:28;;;;;;;24.17;16.70;;;;;;;;;;5040011;28;20025;-79
2022/04/04 14:04:54;;;;;;;26.47;16.23;;;;;;;;;;5039761;28;20048;-75
2022/04/04 14:07:21;;;;;;;26.13;17.07;;;;;;;;;;5032530;28;20033;-78
2022/04/04 14:09:47;;;;;;;26.67;17.20;;;;;;;;;;5029387;28;20101;-76
2022/04/04 14:12:13;;;;;;;27.07;16.47;;;;;;;;;;5036474;28;20100;-77
2022/04/04 14:14:39;;;;;;;25.53;16.63;;;;;;;;;;5037722;28;20109;-75
2022/04/04 14:17:06;;;;;;;27.53;17.43;;;;;;;;;;5032097;28;20044;-77
2022/04/04 14:19:32;;;;;;;29.50;17.43;;;;;;;;;;5033992;28;20076;-72
2022/04/04 14:21:58;;;;;;;28.40;18.00;;;;;;;;;;5039239;28;20034;-81
2022/04/04 14:24:24;;;;;;;25.77;17.37;;;;;;;;;;5047105;28;20060;-79
2022/04/04 14:26:52;;;;;;;29.13;18.50;;;;;;;;;;5047839;28;20033;-77
2022/04/04 14:29:18;;;;;;;26.00;17.57;;;;;;;;;;5044182;28;20049;-79
2022/04/04 14:31:44;;;;;;;28.23;17.77;;;;;;;;;;5042968;28;20048;-78
2022/04/04 14:34:10;;;;;;;24.67;16.07;;;;;;;;;;5039596;28;20033;-78
2022/04/04 14:36:37;;;;;;;27.43;18.00;;;;;;;;;;5039042;28;20432;-77